Time;durP1;ratioP1;P1;durP2;ratioP2;P2;SDS_P1;SDS_P2;PMS_P1;PMS_P2;Temp;Humidity;BMP_temperature;BMP_pressure;BME280_temperature;BME280_humidity;BME280_pressure;Samples;Min_cycle;Max_cycle;Signal;HPM_P1;HPM_P2
2021/10/20 00:01:57;;;;;;;4.20;3.50;;;;;;;21.55;66.35;97879.06;5015514;28;20249;-68
2021/10/20 00:04:23;;;;;;;4.10;3.67;;;;;;;21.54;66.50;97880.78;5029121;28;20667;-68
2021/10/20 00:06:51;;;;;;;3.30;2.90;;;;;;;21.44;66.44;97865.91;5024946;28;20208;-69
2021/10/20 00:09:18;;;;;;;3.93;3.30;;;;;;;20.71;66.18;97735.44;5031295;28;20221;-69
2021/10/20 00:11:44;;;;;;;3.57;3.27;;;;;;;21.54;66.43;97870.53;5028477;28;20640;-69
2021/10/20 00:14:11;;;;;;;3.73;3.40;;;;;;;21.55;66.22;97873.94;5030783;28;20232;-68
2021/10/20 00:16:37;;;;;;;4.33;3.20;;;;;;;21.54;66.31;97873.09;5030909;28;20236;-68
2021/10/20 00:19:04;;;;;;;6.07;3.60;;;;;;;21.48;66.75;97859.22;5023503;28;20240;-69
2021/10/20 00:21:31;;;;;;;5.57;3.47;;;;;;;21.33;66.06;97831.44;5027845;28;20319;-68
2021/10/20 00:23:59;;;;;;;4.00;3.20;;;;;;;21.43;66.31;97841.16;5024672;28;20257;-68
2021/10/20 00:26:26;;;;;;;3.13;2.83;;;;;;;21.53;66.25;97850.88;4996373;28;20198;-69
2021/10/20 00:28:52;;;;;;;5.10;3.73;;;;;;;21.55;67.21;97846.69;5031008;28;20206;-68
2021/10/20 00:31:19;;;;;;;3.57;3.27;;;;;;;21.55;66.51;97850.94;5027136;28;20240;-70
2021/10/20 00:33:45;;;;;;;3.33;3.03;;;;;;;21.55;66.60;97845.81;4998944;28;20212;-69
2021/10/20 00:36:12;;;;;;;3.80;3.47;;;;;;;21.38;66.50;97813.72;5027014;28;20230;-68
2021/10/20 00:38:39;;;;;;;3.50;3.10;;;;;;;21.56;66.67;97842.47;5003342;28;20236;-69
2021/10/20 00:41:05;;;;;;;3.53;2.83;;;;;;;21.55;66.59;97827.91;5033455;28;20284;-69
2021/10/20 00:43:32;;;;;;;3.50;3.20;;;;;;;21.54;66.51;97834.75;5007525;28;20275;-68
2021/10/20 00:45:58;;;;;;;4.40;3.53;;;;;;;21.55;66.69;97827.91;5010898;28;20229;-69
2021/10/20 00:48:25;;;;;;;3.80;3.10;;;;;;;21.46;66.46;97817.38;5026411;28;20563;-68
2021/10/20 00:50:52;;;;;;;3.83;3.30;;;;;;;21.33;66.63;97790.53;5011745;28;20259;-70
2021/10/20 00:53:18;;;;;;;3.23;2.93;;;;;;;21.44;66.65;97811.34;4998782;28;20971;-68
2021/10/20 00:55:45;;;;;;;3.20;2.90;;;;;;;21.18;66.40;97759.34;4998139;28;20649;-68
2021/10/20 00:58:12;;;;;;;3.43;2.90;;;;;;;21.36;66.43;97788.09;5009212;28;20278;-69
2021/10/20 01:00:38;;;;;;;3.73;2.93;;;;;;;21.54;66.65;97819.41;4992211;28;20669;-68
2021/10/20 01:03:05;;;;;;;4.40;3.00;;;;;;;21.42;66.95;97790.84;5031878;28;20234;-69
2021/10/20 01:05:32;;;;;;;4.63;3.40;;;;;;;21.56;66.72;97819.44;5023071;28;20485;-69
2021/10/20 01:07:58;;;;;;;4.87;3.13;;;;;;;21.55;66.43;97816.00;5004222;28;20750;-69
2021/10/20 01:10:25;;;;;;;4.97;3.33;;;;;;;21.31;66.62;97760.59;5029081;28;20251;-69
2021/10/20 01:12:51;;;;;;;3.83;3.03;;;;;;;21.54;66.49;97806.59;5011597;28;20280;-69
2021/10/20 01:15:23;;;;;;;3.77;3.37;;;;;;;21.53;66.77;97804.00;5030670;28;20225;-69
2021/10/20 01:17:50;;;;;;;3.73;3.20;;;;;;;21.52;66.63;97797.13;5023965;28;20209;-70
2021/10/20 01:20:17;;;;;;;3.33;2.97;;;;;;;21.31;66.76;97758.06;5031012;28;20229;-69
2021/10/20 01:22:44;;;;;;;3.23;2.93;;;;;;;21.49;66.84;97790.22;5035941;28;20324;-69
2021/10/20 01:25:11;;;;;;;4.27;3.27;;;;;;;21.49;67.05;97789.34;5015197;28;20240;-70
2021/10/20 01:27:38;;;;;;;3.40;3.00;;;;;;;21.49;67.12;97784.25;5017515;28;20210;-68
2021/10/20 01:30:06;;;;;;;3.40;3.10;;;;;;;21.44;66.86;97780.69;5030378;28;20233;-66
2021/10/20 01:32:32;;;;;;;3.47;3.17;;;;;;;20.40;66.83;97607.53;5007277;28;20265;-70
2021/10/20 01:34:59;;;;;;;3.23;2.90;;;;;;;21.43;67.05;97773.81;5029716;28;20240;-68
2021/10/20 01:37:28;;;;;;;3.43;3.13;;;;;;;21.38;66.94;97762.56;5026969;28;20691;-68
2021/10/20 01:39:57;;;;;;;3.27;2.97;;;;;;;20.68;66.79;97651.94;4993810;28;20197;-68
2021/10/20 01:42:25;;;;;;;2.90;2.70;;;;;;;21.49;66.89;97786.78;5033791;28;20232;-70
2021/10/20 01:44:51;;;;;;;3.20;2.90;;;;;;;21.48;66.77;97779.94;5028310;28;20197;-69
2021/10/20 01:47:18;;;;;;;3.20;2.90;;;;;;;21.38;66.91;97765.13;5032102;28;20297;-68
2021/10/20 01:49:44;;;;;;;3.20;2.90;;;;;;;20.70;66.94;97642.66;5030065;28;20300;-69
2021/10/20 01:52:11;;;;;;;3.40;3.10;;;;;;;21.36;67.12;97756.53;5012739;28;20336;-68
2021/10/20 01:54:38;;;;;;;3.30;3.00;;;;;;;21.45;66.77;97767.94;5030841;28;20332;-69
2021/10/20 01:57:04;;;;;;;3.27;2.80;;;;;;;21.48;66.82;97772.28;5031657;28;20630;-69
2021/10/20 01:59:31;;;;;;;2.90;2.60;;;;;;;21.42;66.82;97756.72;5030637;28;20292;-69
2021/10/20 02:01:57;;;;;;;3.20;2.60;;;;;;;21.47;67.01;97763.72;5029161;28;20295;-70
2021/10/20 02:04:28;;;;;;;3.43;3.13;;;;;;;21.15;67.09;97703.00;5023426;28;20225;-68
2021/10/20 02:06:54;;;;;;;3.77;2.93;;;;;;;21.47;67.03;97760.31;5006400;28;20693;-68
2021/10/20 02:09:21;;;;;;;3.30;3.00;;;;;;;21.17;66.89;97703.91;5016097;28;20644;-68
2021/10/20 02:11:47;;;;;;;3.70;2.97;;;;;;;21.47;66.99;97755.22;5029877;28;20229;-70
2021/10/20 02:14:14;;;;;;;3.20;2.90;;;;;;;21.35;66.83;97729.22;5028151;28;20266;-68
2021/10/20 02:16:41;;;;;;;3.13;2.80;;;;;;;21.47;67.20;97739.88;5012152;28;20237;-68
2021/10/20 02:19:07;;;;;;;2.83;2.63;;;;;;;21.42;66.95;97731.16;5031971;28;20197;-70
2021/10/20 02:21:35;;;;;;;2.90;2.70;;;;;;;21.47;66.86;97734.75;5028942;28;20754;-70
2021/10/20 02:24:01;;;;;;;3.30;2.97;;;;;;;21.46;66.99;97731.31;4994116;28;20222;-69
2021/10/20 02:26:28;;;;;;;4.47;2.77;;;;;;;20.36;66.73;97542.72;5022581;28;20205;-70
2021/10/20 02:28:54;;;;;;;3.10;2.80;;;;;;;21.34;67.03;97697.69;5028731;28;20749;-69
2021/10/20 02:31:21;;;;;;;3.17;2.87;;;;;;;21.46;66.95;97715.97;5011601;28;20286;-68
2021/10/20 02:33:48;;;;;;;3.30;3.00;;;;;;;21.41;67.10;97698.75;5029716;28;20300;-68
2021/10/20 02:36:14;;;;;;;2.93;2.63;;;;;;;20.69;67.17;97581.31;5030328;28;20288;-71
2021/10/20 02:38:41;;;;;;;3.40;3.03;;;;;;;21.38;66.81;97691.00;5030990;28;20296;-70
2021/10/20 02:41:08;;;;;;;2.93;2.60;;;;;;;21.44;67.19;97699.69;5019860;28;20202;-69
2021/10/20 02:43:36;;;;;;;3.03;2.77;;;;;;;20.58;66.97;97554.53;5032257;28;20308;-68
2021/10/20 02:46:03;;;;;;;3.07;2.87;;;;;;;21.27;67.14;97665.06;5026857;28;20248;-68
2021/10/20 02:48:30;;;;;;;2.70;2.50;;;;;;;21.19;67.06;97655.41;5010654;28;20210;-69
2021/10/20 02:50:56;;;;;;;3.20;2.90;;;;;;;21.38;66.97;97691.84;5011977;28;20235;-69
2021/10/20 02:53:23;;;;;;;3.57;2.87;;;;;;;21.34;66.93;97687.44;5011479;28;20253;-68
2021/10/20 02:55:50;;;;;;;3.20;2.80;;;;;;;20.59;67.02;97558.81;5028908;28;20202;-69
2021/10/20 02:58:17;;;;;;;2.90;2.60;;;;;;;21.42;66.72;97685.13;5012589;28;20648;-68
2021/10/20 03:00:43;;;;;;;2.90;2.70;;;;;;;21.42;67.05;97682.59;5027123;28;20625;-68
2021/10/20 03:03:10;;;;;;;2.67;2.47;;;;;;;21.41;67.30;97686.81;5034992;28;20261;-69
2021/10/20 03:05:37;;;;;;;3.30;2.90;;;;;;;20.08;67.04;97453.28;5028849;28;20722;-68
2021/10/20 03:08:03;;;;;;;3.10;2.80;;;;;;;21.41;67.21;97671.47;5033517;28;20312;-68
2021/10/20 03:10:30;;;;;;;3.37;2.90;;;;;;;21.42;67.41;97672.34;5028371;28;20568;-68
2021/10/20 03:12:57;;;;;;;3.13;2.83;;;;;;;20.52;66.84;97505.84;5026912;28;20245;-69
2021/10/20 03:15:23;;;;;;;3.03;2.73;;;;;;;21.36;67.42;97649.16;5029584;28;20369;-69
2021/10/20 03:17:50;;;;;;;3.33;2.80;;;;;;;21.11;67.32;97621.09;5009560;28;20298;-68
2021/10/20 03:20:17;;;;;;;3.13;2.60;;;;;;;21.43;67.44;97657.06;5029663;28;20233;-69
2021/10/20 03:22:44;;;;;;;2.80;2.60;;;;;;;21.42;67.45;97650.22;5032583;28;20252;-68
2021/10/20 03:25:11;;;;;;;3.00;2.70;;;;;;;20.34;67.01;97451.63;5028557;28;20257;-68
2021/10/20 03:27:45;;;;;;;2.97;2.50;;;;;;;21.42;67.29;97640.00;5019720;28;20288;-69
2021/10/20 03:30:13;;;;;;;2.53;2.33;;;;;;;21.22;66.96;97606.94;5003802;28;20290;-68
2021/10/20 03:32:40;;;;;;;2.60;2.40;;;;;;;19.84;67.03;97368.28;5010427;28;20335;-71
2021/10/20 03:35:07;;;;;;;3.00;2.70;;;;;;;21.28;67.31;97623.34;5019861;28;20208;-70
2021/10/20 03:37:34;;;;;;;2.93;2.70;;;;;;;21.43;67.53;97643.41;5028796;28;20761;-68
2021/10/20 03:40:01;;;;;;;3.00;2.70;;;;;;;21.43;67.23;97643.41;5028668;28;20241;-68
2021/10/20 03:42:27;;;;;;;2.70;2.50;;;;;;;21.24;67.25;97602.75;5028464;28;20235;-69
2021/10/20 03:44:54;;;;;;;2.53;2.33;;;;;;;21.43;67.33;97646.84;5008598;28;20312;-68
2021/10/20 03:47:21;;;;;;;3.00;2.60;;;;;;;21.43;67.36;97635.72;5010962;28;20325;-68
2021/10/20 03:49:48;;;;;;;2.60;2.40;;;;;;;21.43;67.29;97626.38;5028306;28;20296;-70
2021/10/20 03:52:14;;;;;;;3.30;2.93;;;;;;;21.12;67.00;97587.03;5028300;28;20316;-69
2021/10/20 03:54:41;;;;;;;2.87;2.67;;;;;;;21.34;67.34;97608.19;4981611;28;20738;-68
2021/10/20 03:57:08;;;;;;;2.70;2.50;;;;;;;21.16;67.25;97565.84;5008068;28;20230;-69
2021/10/20 03:59:37;;;;;;;2.53;2.30;;;;;;;20.59;67.26;97482.22;5012304;28;20232;-69
2021/10/20 04:02:04;;;;;;;3.03;2.50;;;;;;;21.37;67.26;97604.84;5014607;28;20665;-68
2021/10/20 04:04:30;;;;;;;2.67;2.47;;;;;;;20.85;67.05;97512.03;5027945;28;20590;-69
2021/10/20 04:06:57;;;;;;;2.60;2.40;;;;;;;21.11;67.78;97559.75;5033221;28;20221;-69
2021/10/20 04:09:23;;;;;;;2.80;2.60;;;;;;;21.40;67.62;97607.50;5019963;28;20293;-68
2021/10/20 04:11:50;;;;;;;2.97;2.73;;;;;;;21.41;67.14;97609.28;5016420;28;20751;-68
2021/10/20 04:14:17;;;;;;;3.50;2.63;;;;;;;21.28;67.60;97587.56;5028651;28;20788;-70
2021/10/20 04:16:43;;;;;;;2.50;2.30;;;;;;;21.24;67.53;97583.19;5017850;28;20265;-69
2021/10/20 04:19:10;;;;;;;3.20;2.67;;;;;;;21.42;67.45;97621.22;4996216;28;20317;-67
2021/10/20 04:21:36;;;;;;;3.13;2.43;;;;;;;21.42;67.35;97622.09;5002474;28;20308;-68
2021/10/20 04:24:03;;;;;;;3.27;2.87;;;;;;;21.36;67.53;97606.56;5017763;28;20348;-67
2021/10/20 04:26:30;;;;;;;2.87;2.67;;;;;;;20.93;67.36;97534.44;5016246;28;20202;-70
2021/10/20 04:28:56;;;;;;;2.97;2.70;;;;;;;21.42;67.32;97619.53;5015233;28;20683;-68
2021/10/20 04:31:23;;;;;;;2.63;2.37;;;;;;;21.42;67.20;97617.00;5023285;28;20217;-68
2021/10/20 04:33:50;;;;;;;3.10;2.57;;;;;;;21.03;67.96;97546.72;5028442;28;20675;-70
2021/10/20 04:36:16;;;;;;;2.33;2.13;;;;;;;21.44;67.39;97617.88;5022808;28;20285;-71
2021/10/20 04:38:43;;;;;;;2.97;2.77;;;;;;;21.43;67.04;97605.94;4994005;28;20238;-68
2021/10/20 04:41:09;;;;;;;2.83;2.63;;;;;;;21.42;67.38;97599.09;4998458;28;20213;-67
2021/10/20 04:43:37;;;;;;;2.60;2.40;;;;;;;21.43;67.16;97598.25;5012298;28;20257;-68
2021/10/20 04:46:03;;;;;;;2.80;2.60;;;;;;;21.38;67.34;97588.72;5015108;28;20232;-69
2021/10/20 04:48:30;;;;;;;2.43;2.23;;;;;;;21.35;67.19;97583.50;5015353;28;20201;-68
2021/10/20 04:50:56;;;;;;;2.80;2.60;;;;;;;21.45;67.43;97598.31;5016976;28;20249;-67
2021/10/20 04:53:23;;;;;;;2.60;2.40;;;;;;;21.44;67.14;97599.13;5015553;28;20328;-72
2021/10/20 04:55:50;;;;;;;3.27;2.97;;;;;;;21.30;67.19;97570.59;5028819;28;20222;-69
2021/10/20 04:58:17;;;;;;;2.63;2.43;;;;;;;21.45;67.69;97594.06;5027962;28;20281;-68
2021/10/20 05:00:43;;;;;;;2.43;2.23;;;;;;;21.44;67.37;97592.31;5006423;28;20241;-71
2021/10/20 05:03:10;;;;;;;5.10;2.60;;;;;;;21.44;66.71;97586.34;5027337;28;20230;-68
2021/10/20 05:05:37;;;;;;;4.27;3.87;;;;;;;21.42;64.97;97576.06;5027458;28;20228;-68
2021/10/20 05:08:03;;;;;;;4.30;3.90;;;;;;;21.42;63.20;97572.66;5025271;28;20214;-69
2021/10/20 05:10:30;;;;;;;4.90;4.20;;;;;;;21.41;62.02;97569.22;5009873;28;20779;-70
2021/10/20 05:12:57;;;;;;;6.83;4.43;;;;;;;21.26;60.68;97540.63;5025869;28;20305;-68
2021/10/20 05:15:23;;;;;;;9.87;4.70;;;;;;;21.35;60.69;97547.72;5023462;28;20871;-68
2021/10/20 05:17:50;;;;;;;5.77;5.17;;;;;;;21.37;59.44;97549.50;5026832;28;20293;-67
2021/10/20 05:20:17;;;;;;;7.93;5.40;;;;;;;21.36;58.62;97545.22;4998961;28;20993;-70
2021/10/20 05:22:43;;;;;;;7.10;5.40;;;;;;;21.29;57.59;97527.09;5013445;28;20264;-67
2021/10/20 05:25:12;;;;;;;9.97;5.63;;;;;;;21.28;57.15;97527.88;5027763;28;20602;-67
2021/10/20 05:27:38;;;;;;;5.80;5.20;;;;;;;21.32;56.35;97538.25;5008479;28;20659;-68
2021/10/20 05:30:05;;;;;;;8.83;6.30;;;;;;;21.29;56.16;97533.03;5007127;28;20241;-68
2021/10/20 05:32:32;;;;;;;6.43;5.77;;;;;;;21.29;55.94;97532.19;4972109;28;20261;-66
2021/10/20 05:34:59;;;;;;;7.30;5.50;;;;;;;21.25;56.27;97517.56;5009317;28;20267;-66
2021/10/20 05:37:25;;;;;;;6.03;5.27;;;;;;;21.30;56.99;97526.25;5029433;28;20201;-66
2021/10/20 05:39:53;;;;;;;6.07;5.47;;;;;;;21.30;57.30;97527.13;5028792;28;20270;-66
2021/10/20 05:42:19;;;;;;;5.80;5.13;;;;;;;21.27;57.93;97527.03;5012633;28;20697;-66
2021/10/20 05:44:46;;;;;;;6.53;5.50;;;;;;;21.26;58.30;97520.19;5013375;28;20325;-64
2021/10/20 05:47:13;;;;;;;5.63;4.97;;;;;;;21.29;58.83;97527.09;5035354;28;20229;-66
2021/10/20 05:49:40;;;;;;;6.70;4.90;;;;;;;21.19;59.01;97502.94;5010822;28;20229;-66
2021/10/20 05:52:06;;;;;;;7.03;5.40;;;;;;;21.21;59.39;97496.19;5030346;28;20221;-66
2021/10/20 05:54:33;;;;;;;5.57;4.60;;;;;;;21.31;60.22;97505.84;5013661;28;20300;-66
2021/10/20 05:57:00;;;;;;;6.13;5.17;;;;;;;21.31;60.05;97508.41;5029888;28;20236;-65
2021/10/20 05:59:26;;;;;;;5.60;5.00;;;;;;;21.30;60.04;97503.25;5030505;28;20291;-66
2021/10/20 06:01:53;;;;;;;5.17;4.40;;;;;;;21.31;60.34;97510.97;5032943;28;20313;-66
2021/10/20 06:04:19;;;;;;;7.47;5.73;;;;;;;21.28;59.45;97510.00;5030704;28;20229;-66
2021/10/20 06:06:46;;;;;;;6.87;5.53;;;;;;;21.33;58.12;97513.56;5030378;28;20272;-66
2021/10/20 06:09:13;;;;;;;5.40;4.90;;;;;;;21.24;58.46;97509.06;5029603;28;20255;-66
2021/10/20 06:11:39;;;;;;;5.70;5.10;;;;;;;21.31;58.96;97515.19;5029608;28;20260;-66
2021/10/20 06:14:06;;;;;;;5.87;5.33;;;;;;;21.30;59.40;97508.38;5019998;28;20728;-64
2021/10/20 06:16:35;;;;;;;6.90;5.57;;;;;;;21.33;59.54;97511.00;5034278;28;20233;-64
2021/10/20 06:19:05;;;;;;;5.67;4.43;;;;;;;21.33;59.78;97514.44;5028253;28;20305;-66
2021/10/20 06:21:32;;;;;;;5.60;5.10;;;;;;;21.34;59.89;97512.72;4991867;28;20308;-64
2021/10/20 06:23:59;;;;;;;6.97;5.17;;;;;;;21.34;59.84;97515.28;5011818;28;20229;-65
2021/10/20 06:26:25;;;;;;;7.53;4.90;;;;;;;21.34;60.49;97518.72;5028074;28;20229;-65
2021/10/20 06:28:54;;;;;;;6.47;4.90;;;;;;;21.30;60.62;97516.91;5026843;28;20602;-65
2021/10/20 06:31:21;;;;;;;4.73;4.23;;;;;;;21.35;60.74;97527.28;5032494;28;20223;-64
2021/10/20 06:33:47;;;;;;;5.97;5.00;;;;;;;21.34;60.76;97528.94;5032321;28;20212;-66
2021/10/20 06:36:43;;;;;;;5.60;4.87;;;;;;;21.36;60.73;97535.00;5027520;28;20241;-65
2021/10/20 06:39:10;;;;;;;5.53;4.80;;;;;;;21.35;60.42;97527.28;5000385;28;20237;-66
2021/10/20 06:41:37;;;;;;;5.17;4.67;;;;;;;21.28;61.01;97515.97;5027886;28;20744;-65
2021/10/20 06:44:03;;;;;;;5.03;4.53;;;;;;;21.36;60.98;97532.44;5010806;28;20273;-65
2021/10/20 06:46:30;;;;;;;5.43;4.67;;;;;;;21.35;61.33;97532.38;5029749;28;20856;-65
2021/10/20 06:48:57;;;;;;;6.03;4.43;;;;;;;21.37;61.53;97525.59;5030125;28;20741;-65
2021/10/20 06:51:23;;;;;;;4.37;3.97;;;;;;;21.37;61.70;97525.59;5028679;28;20213;-65
2021/10/20 06:53:50;;;;;;;5.20;4.70;;;;;;;21.31;61.04;97515.19;5030416;28;20208;-65
2021/10/20 06:56:16;;;;;;;5.37;4.60;;;;;;;21.34;61.60;97516.16;5010405;28;20225;-65
2021/10/20 06:58:43;;;;;;;4.70;4.27;;;;;;;21.37;61.76;97523.94;5027107;28;20528;-65
2021/10/20 07:01:10;;;;;;;4.20;3.83;;;;;;;21.32;61.67;97512.69;5011578;28;20230;-65
2021/10/20 07:03:36;;;;;;;4.90;4.40;;;;;;;21.38;61.65;97524.81;5032635;28;20201;-65
2021/10/20 07:06:06;;;;;;;5.13;4.40;;;;;;;21.30;61.52;97516.91;5011601;28;20229;-65
2021/10/20 07:08:32;;;;;;;5.47;4.50;;;;;;;21.37;61.81;97534.16;5013717;28;20233;-65
2021/10/20 07:10:59;;;;;;;4.83;4.40;;;;;;;21.39;61.53;97531.66;5027661;28;20292;-65
2021/10/20 07:13:25;;;;;;;4.57;4.03;;;;;;;21.40;61.65;97538.47;5031769;28;20267;-65
2021/10/20 07:15:53;;;;;;;4.40;4.00;;;;;;;21.27;61.67;97521.94;5033353;28;20667;-65
2021/10/20 07:18:20;;;;;;;5.63;4.03;;;;;;;21.32;61.35;97525.47;5027535;28;20204;-65
2021/10/20 07:20:47;;;;;;;5.40;4.07;;;;;;;21.41;61.50;97538.53;5013741;28;20220;-65
2021/10/20 07:23:14;;;;;;;4.00;3.70;;;;;;;21.42;61.46;97540.28;5029331;28;20981;-65
2021/10/20 07:25:40;;;;;;;4.40;4.00;;;;;;;21.37;61.95;97529.03;5011242;28;20275;-65
2021/10/20 07:28:09;;;;;;;6.43;4.17;;;;;;;21.43;61.98;97536.00;5028745;28;20237;-64
2021/10/20 07:30:37;;;;;;;6.70;3.93;;;;;;;21.42;62.16;97542.84;5011187;28;20285;-65
2021/10/20 07:33:04;;;;;;;6.23;4.27;;;;;;;21.38;59.65;97527.38;5011818;28;20260;-65
2021/10/20 07:35:31;;;;;;;5.77;4.57;;;;;;;21.42;58.06;97532.63;5027179;28;20225;-65
2021/10/20 07:37:57;;;;;;;5.03;4.20;;;;;;;21.35;57.41;97522.16;5005361;28;20240;-65
2021/10/20 07:40:24;;;;;;;4.53;4.13;;;;;;;21.40;58.29;97526.56;5029606;28;20900;-64
2021/10/20 07:42:50;;;;;;;4.70;4.00;;;;;;;21.39;58.13;97527.41;5026248;28;20255;-65
2021/10/20 07:45:19;;;;;;;5.17;4.17;;;;;;;21.35;58.62;97523.00;5027284;28;20300;-65
2021/10/20 07:47:49;;;;;;;4.30;3.90;;;;;;;21.09;58.78;97467.72;5020446;28;20289;-65
2021/10/20 07:50:16;;;;;;;5.73;3.87;;;;;;;21.40;59.36;97520.59;5012763;28;20232;-65
2021/10/20 07:52:48;;;;;;;5.73;4.23;;;;;;;21.19;59.83;97491.81;5025195;28;20667;-65
2021/10/20 07:55:21;;;;;;;4.23;3.67;;;;;;;21.41;59.74;97535.13;5011453;28;20298;-66
2021/10/20 07:57:52;;;;;;;6.30;4.03;;;;;;;21.39;60.09;97527.41;5026456;28;20734;-65
2021/10/20 08:00:18;;;;;;;4.57;3.93;;;;;;;21.43;60.34;97531.78;5027213;28;20240;-64
2021/10/20 08:02:45;;;;;;;5.03;4.03;;;;;;;21.43;60.77;97520.69;5009494;28;20265;-65
2021/10/20 08:05:14;;;;;;;5.27;3.37;;;;;;;21.38;60.71;97520.53;5028151;28;20228;-65
2021/10/20 08:07:47;;;;;;;4.77;3.83;;;;;;;21.40;60.77;97518.03;5026364;28;20241;-65
2021/10/20 08:10:15;;;;;;;4.67;3.87;;;;;;;21.45;61.11;97519.03;4996476;28;20207;-65
2021/10/20 08:12:43;;;;;;;4.97;3.73;;;;;;;21.31;61.16;97498.19;5009519;28;20267;-64
2021/10/20 08:15:10;;;;;;;4.77;3.43;;;;;;;21.45;61.64;97522.47;5028544;28;20197;-67
2021/10/20 08:17:36;;;;;;;3.77;3.47;;;;;;;21.45;61.79;97513.94;4994910;28;20237;-64
2021/10/20 08:20:05;;;;;;;3.60;3.23;;;;;;;21.43;62.02;97497.66;5009598;28;20229;-65
2021/10/20 08:22:32;;;;;;;3.57;3.27;;;;;;;21.34;61.95;97482.94;5001818;28;20222;-65
2021/10/20 08:24:58;;;;;;;4.13;3.33;;;;;;;21.37;62.20;97479.59;5028229;28;20279;-65
2021/10/20 08:27:25;;;;;;;6.17;2.83;;;;;;;21.49;62.17;97502.97;5026471;28;20233;-64
2021/10/20 08:29:52;;;;;;;3.40;3.10;;;;;;;21.48;62.33;97488.44;5025982;28;20224;-65
2021/10/20 08:32:18;;;;;;;4.50;3.27;;;;;;;21.48;62.58;97497.00;5027656;28;20324;-64
2021/10/20 08:34:46;;;;;;;3.40;3.00;;;;;;;21.45;62.78;97488.38;5022123;28;20931;-64
2021/10/20 08:37:13;;;;;;;3.27;2.67;;;;;;;21.49;62.82;97495.28;5006389;28;20232;-65
2021/10/20 08:39:40;;;;;;;3.57;3.07;;;;;;;21.39;62.84;97473.72;5027242;28;20742;-65
2021/10/20 08:42:06;;;;;;;3.17;2.93;;;;;;;21.46;63.22;97487.53;5010110;28;20232;-65
2021/10/20 08:44:38;;;;;;;3.00;2.80;;;;;;;21.46;62.79;97488.41;5023858;28;20604;-65
2021/10/20 08:47:05;;;;;;;3.70;2.70;;;;;;;21.46;62.92;97484.97;5028000;28;20244;-65
2021/10/20 08:49:32;;;;;;;2.97;2.67;;;;;;;21.27;63.01;97449.47;5009649;28;20392;-65
2021/10/20 08:51:58;;;;;;;3.07;2.77;;;;;;;21.44;63.22;97479.81;4995190;28;20257;-65
2021/10/20 08:54:25;;;;;;;3.07;2.80;;;;;;;21.44;63.01;97474.69;5008173;28;20233;-65
2021/10/20 08:56:52;;;;;;;3.00;2.70;;;;;;;21.38;63.27;97463.44;5025991;28;20236;-65
2021/10/20 08:59:20;;;;;;;3.10;2.80;;;;;;;21.43;63.22;97472.09;5027510;28;20241;-64
2021/10/20 09:01:47;;;;;;;3.43;3.13;;;;;;;21.42;63.16;97468.69;5011456;28;20316;-65
2021/10/20 09:04:19;;;;;;;3.10;2.83;;;;;;;21.37;63.34;97456.59;5028877;28;20210;-65
2021/10/20 09:06:45;;;;;;;2.90;2.70;;;;;;;20.40;63.36;97289.31;5021394;28;20312;-65
2021/10/20 09:09:14;;;;;;;2.87;2.60;;;;;;;21.41;63.59;97464.38;5011115;28;20471;-65
2021/10/20 09:11:41;;;;;;;3.13;2.80;;;;;;;21.38;63.38;97459.19;5025916;28;20261;-65
2021/10/20 09:14:12;;;;;;;2.60;2.40;;;;;;;21.38;63.45;97454.06;5007657;28;20206;-64
2021/10/20 09:16:41;;;;;;;3.30;3.00;;;;;;;21.26;63.43;97429.88;5011272;28;20284;-65
2021/10/20 09:19:23;;;;;;;3.47;2.77;;;;;;;21.42;63.32;97460.16;4995713;28;20694;-65
2021/10/20 09:22:02;;;;;;;2.80;2.50;;;;;;;21.40;63.24;97438.78;5013173;28;20264;-65
2021/10/20 09:24:33;;;;;;;2.97;2.77;;;;;;;21.40;63.35;97431.97;5012085;28;20756;-65
2021/10/20 09:27:00;;;;;;;3.27;2.97;;;;;;;21.40;63.38;97431.09;5025947;28;20750;-65
2021/10/20 09:29:29;;;;;;;3.87;3.40;;;;;;;21.39;63.19;97424.28;4994285;28;20260;-65
2021/10/20 09:31:56;;;;;;;6.03;3.77;;;;;;;21.38;63.04;97420.00;5008471;28;20268;-66
2021/10/20 09:34:32;;;;;;;3.70;3.40;;;;;;;21.36;63.24;97411.41;5031297;28;20201;-66
2021/10/20 09:37:00;;;;;;;3.87;3.47;;;;;;;21.38;63.16;97410.59;5031932;28;20220;-65
2021/10/20 09:39:26;;;;;;;3.90;3.37;;;;;;;21.36;63.10;97402.06;4999895;28;20687;-65
2021/10/20 09:42:06;;;;;;;3.00;2.70;;;;;;;21.25;63.36;97379.56;5027989;28;20217;-64
2021/10/20 09:44:51;;;;;;;4.40;3.00;;;;;;;21.36;63.69;97399.50;5014624;28;20236;-65
2021/10/20 09:47:19;;;;;;;4.73;3.10;;;;;;;21.35;63.53;97395.19;5029161;28;20201;-65
2021/10/20 09:49:54;;;;;;;3.07;2.77;;;;;;;21.36;63.43;97396.06;5029744;28;20248;-65
2021/10/20 09:52:25;;;;;;;4.93;3.00;;;;;;;21.28;63.31;97377.97;5013955;28;20328;-65
2021/10/20 09:54:51;;;;;;;4.53;2.90;;;;;;;21.36;63.57;97390.94;5011166;28;20211;-65
2021/10/20 09:57:18;;;;;;;3.63;3.30;;;;;;;21.33;63.77;97378.09;5030544;28;20244;-65
2021/10/20 09:59:44;;;;;;;3.53;2.83;;;;;;;21.13;63.63;97346.88;5011548;28;20256;-65
2021/10/20 10:02:11;;;;;;;5.13;3.03;;;;;;;21.36;63.57;97380.72;5012619;28;20265;-65
2021/10/20 10:04:39;;;;;;;3.80;2.90;;;;;;;21.31;63.66;97364.38;5033161;28;20215;-64
2021/10/20 10:07:06;;;;;;;3.73;3.03;;;;;;;21.30;63.85;97353.31;5029391;28;20657;-65
2021/10/20 10:09:32;;;;;;;3.30;3.00;;;;;;;21.30;64.33;97366.09;5030739;28;20292;-64
2021/10/20 10:12:13;;;;;;;6.90;3.10;;;;;;;21.32;63.73;97359.31;5009814;28;20680;-65
2021/10/20 10:14:43;;;;;;;3.20;2.80;;;;;;;21.29;64.12;97372.00;5007983;28;20316;-65
2021/10/20 10:17:10;;;;;;;3.23;2.93;;;;;;;21.33;63.90;97373.84;5013222;28;20660;-65
2021/10/20 10:19:40;;;;;;;3.53;2.90;;;;;;;21.34;63.34;97372.13;5013320;28;20281;-65
2021/10/20 10:22:51;;;;;;;3.77;2.77;;;;;;;21.34;63.85;97383.25;5013450;28;20307;-65
2021/10/20 10:25:37;;;;;;;3.07;2.77;;;;;;;21.34;63.79;97380.69;4965480;28;20807;-65
2021/10/20 10:28:26;;;;;;;3.07;2.67;;;;;;;21.34;63.91;97374.69;5029438;28;20292;-64
2021/10/20 10:30:54;;;;;;;3.33;3.03;;;;;;;21.34;64.00;97372.13;5027564;28;20202;-65
2021/10/20 10:33:28;;;;;;;3.17;2.70;;;;;;;21.24;64.08;97342.91;5023806;28;20256;-65
2021/10/20 10:36:13;;;;;;;3.03;2.70;;;;;;;21.34;64.14;97357.69;4995264;28;20205;-65
2021/10/20 10:38:47;;;;;;;2.77;2.57;;;;;;;21.34;63.73;97356.81;5015710;28;20232;-65
2021/10/20 10:41:18;;;;;;;2.70;2.50;;;;;;;21.34;64.15;97349.13;5011463;28;20222;-65
2021/10/20 10:44:10;;;;;;;2.97;2.70;;;;;;;21.33;63.98;97338.06;5029666;28;20292;-65
2021/10/20 10:46:41;;;;;;;2.70;2.50;;;;;;;21.33;63.86;97337.19;5029295;28;20220;-65
2021/10/20 10:49:26;;;;;;;2.80;2.47;;;;;;;21.32;64.11;97317.56;5011194;28;20198;-65
2021/10/20 10:52:20;;;;;;;2.77;2.57;;;;;;;21.32;64.18;97323.53;5027689;28;20313;-65
2021/10/20 10:55:05;;;;;;;3.23;2.93;;;;;;;21.32;64.19;97325.25;5010297;28;20201;-64
2021/10/20 10:57:36;;;;;;;3.50;2.80;;;;;;;21.33;64.20;97309.06;5008517;28;20204;-65
2021/10/20 11:00:18;;;;;;;2.73;2.50;;;;;;;21.33;63.97;97286.06;5010310;28;20240;-65
2021/10/20 11:02:55;;;;;;;2.87;2.57;;;;;;;21.32;63.93;97292.84;5027214;28;20264;-65
2021/10/20 11:05:26;;;;;;;3.77;3.00;;;;;;;21.33;64.10;97283.50;5028179;28;20229;-64
2021/10/20 11:08:03;;;;;;;5.03;2.87;;;;;;;21.33;64.12;97275.84;5027627;28;20240;-64
2021/10/20 11:10:30;;;;;;;3.10;2.80;;;;;;;21.34;64.28;97268.22;5029389;28;20243;-65
2021/10/20 11:12:57;;;;;;;2.77;2.57;;;;;;;21.33;64.20;97261.38;5011951;28;20245;-65
2021/10/20 11:15:25;;;;;;;3.43;3.00;;;;;;;21.34;64.10;97264.78;5023766;28;20233;-65
2021/10/20 11:17:51;;;;;;;3.23;2.93;;;;;;;21.32;64.15;97248.56;5003924;28;20670;-65
2021/10/20 11:20:19;;;;;;;5.97;2.53;;;;;;;21.30;63.88;97238.28;5011499;28;20212;-63
2021/10/20 11:22:47;;;;;;;2.97;2.60;;;;;;;20.53;64.35;97107.63;5006810;28;20336;-65
2021/10/20 11:25:14;;;;;;;2.90;2.60;;;;;;;21.35;64.07;97248.63;5028722;28;20285;-65
2021/10/20 11:27:49;;;;;;;3.23;2.77;;;;;;;21.31;64.14;97231.47;5009275;28;20718;-65
2021/10/20 11:30:17;;;;;;;3.50;2.90;;;;;;;21.36;64.09;97235.00;5007945;28;20221;-64
2021/10/20 11:32:44;;;;;;;2.80;2.50;;;;;;;21.36;64.22;97219.69;5026008;28;20236;-65
2021/10/20 11:35:24;;;;;;;2.50;2.30;;;;;;;21.35;64.17;97216.25;5033814;23;20261;-61
2021/10/20 11:37:57;;;;;;;2.70;2.50;;;;;;;21.35;63.95;97208.56;5026730;28;20646;-62
2021/10/20 11:40:25;;;;;;;2.70;2.50;;;;;;;21.36;64.15;97205.22;5028547;28;20200;-62